sensor_id;sensor_type;location;lat;lon;timestamp;pressure;altitude;pressure_sealevel;temperature;humidity
16595;BME280;8410;52.532;13.336;2023-02-02T00:01:22;100365.84;;;6.29;84.63
16595;BME280;8410;52.532;13.336;2023-02-02T00:03:51;100357.47;;;6.00;83.92
16595;BME280;8410;52.532;13.336;2023-02-02T00:06:20;100355.06;;;6.43;84.89
16595;BME280;8410;52.532;13.336;2023-02-02T00:08:48;100347.75;;;6.58;83.62
16595;BME280;8410;52.532;13.336;2023-02-02T00:11:17;100347.38;;;6.05;84.60
16595;BME280;8410;52.532;13.336;2023-02-02T00:13:44;100348.53;;;6.17;83.85
16595;BME280;8410;52.532;13.336;2023-02-02T00:16:36;100349.66;;;6.30;82.96
16595;BME280;8410;52.532;13.336;2023-02-02T00:19:06;100352.13;;;6.26;84.07
16595;BME280;8410;52.532;13.336;2023-02-02T00:21:34;100338.94;;;6.47;84.06
16595;BME280;8410;52.532;13.336;2023-02-02T00:24:03;100340.09;;;6.58;84.15
16595;BME280;8410;52.532;13.336;2023-02-02T00:26:31;100326.88;;;6.39;82.90
16595;BME280;8410;52.532;13.336;2023-02-02T00:28:59;100337.47;;;6.18;83.85
16595;BME280;8410;52.532;13.336;2023-02-02T00:31:26;100338.25;;;6.16;84.55
16595;BME280;8410;52.532;13.336;2023-02-02T00:33:56;100333.25;;;5.87;86.48
16595;BME280;8410;52.532;13.336;2023-02-02T00:36:23;100332.91;;;6.42;84.29
16595;BME280;8410;52.532;13.336;2023-02-02T00:38:51;100328.03;;;6.16;85.16
16595;BME280;8410;52.532;13.336;2023-02-02T00:41:19;100328.38;;;6.69;82.71
16595;BME280;8410;52.532;13.336;2023-02-02T00:43:46;100319.47;;;6.52;84.20
16595;BME280;8410;52.532;13.336;2023-02-02T00:46:37;100321.28;;;6.19;85.27
16595;BME280;8410;52.532;13.336;2023-02-02T00:49:05;100312.16;;;6.29;85.01
16595;BME280;8410;52.532;13.336;2023-02-02T00:51:33;100315.25;;;6.16;87.27
16595;BME280;8410;52.532;13.336;2023-02-02T00:54:00;100330.72;;;6.22;86.88
16595;BME280;8410;52.532;13.336;2023-02-02T00:56:28;100325.91;;;6.34;86.36
16595;BME280;8410;52.532;13.336;2023-02-02T00:58:56;100335.41;;;6.04;87.70
16595;BME280;8410;52.532;13.336;2023-02-02T01:01:23;100331.84;;;6.33;86.65
16595;BME280;8410;52.532;13.336;2023-02-02T01:03:51;100341.22;;;5.96;88.88
16595;BME280;8410;52.532;13.336;2023-02-02T01:06:20;100347.84;;;5.91;89.34
16595;BME280;8410;52.532;13.336;2023-02-02T01:08:47;100335.50;;;6.07;89.55
16595;BME280;8410;52.532;13.336;2023-02-02T01:11:15;100356.88;;;6.12;89.91
16595;BME280;8410;52.532;13.336;2023-02-02T01:13:43;100351.97;;;5.86;90.47
16595;BME280;8410;52.532;13.336;2023-02-02T01:16:11;100351.50;;;6.01;91.68
16595;BME280;8410;52.532;13.336;2023-02-02T01:18:38;100338.66;;;5.96;91.39
16595;BME280;8410;52.532;13.336;2023-02-02T01:21:07;100343.69;;;5.93;91.96
16595;BME280;8410;52.532;13.336;2023-02-02T01:23:37;100339.22;;;6.21;91.97
16595;BME280;8410;52.532;13.336;2023-02-02T01:26:08;100340.94;;;6.22;90.34
16595;BME280;8410;52.532;13.336;2023-02-02T01:28:36;100357.59;;;6.05;92.08
16595;BME280;8410;52.532;13.336;2023-02-02T01:31:06;100351.84;;;5.80;92.52
16595;BME280;8410;52.532;13.336;2023-02-02T01:33:34;100358.66;;;5.81;93.28
16595;BME280;8410;52.532;13.336;2023-02-02T01:36:03;100347.44;;;6.08;92.41
16595;BME280;8410;52.532;13.336;2023-02-02T01:38:32;100352.22;;;5.94;93.05
16595;BME280;8410;52.532;13.336;2023-02-02T01:41:01;100346.81;;;5.83;92.12
16595;BME280;8410;52.532;13.336;2023-02-02T01:43:49;100345.47;;;5.97;91.86
16595;BME280;8410;52.532;13.336;2023-02-02T01:46:20;100341.47;;;6.09;91.52
16595;BME280;8410;52.532;13.336;2023-02-02T01:48:51;100343.81;;;6.00;91.43
16595;BME280;8410;52.532;13.336;2023-02-02T01:51:23;100351.66;;;5.74;92.53
16595;BME280;8410;52.532;13.336;2023-02-02T01:53:52;100361.00;;;5.73;92.45
16595;BME280;8410;52.532;13.336;2023-02-02T01:56:25;100358.88;;;5.90;92.70
16595;BME280;8410;52.532;13.336;2023-02-02T01:58:55;100361.94;;;5.77;93.96
16595;BME280;8410;52.532;13.336;2023-02-02T02:01:23;100374.13;;;5.87;94.10
16595;BME280;8410;52.532;13.336;2023-02-02T02:03:51;100369.78;;;5.83;93.88
16595;BME280;8410;52.532;13.336;2023-02-02T02:06:19;100367.88;;;6.08;92.83
16595;BME280;8410;52.532;13.336;2023-02-02T02:08:50;100364.88;;;6.24;91.37
16595;BME280;8410;52.532;13.336;2023-02-02T02:11:19;100364.47;;;6.09;91.59
16595;BME280;8410;52.532;13.336;2023-02-02T02:13:49;100368.09;;;6.17;92.57
16595;BME280;8410;52.532;13.336;2023-02-02T02:16:45;100367.28;;;6.19;92.19
16595;BME280;8410;52.532;13.336;2023-02-02T02:19:37;100369.13;;;6.24;92.05
16595;BME280;8410;52.532;13.336;2023-02-02T02:22:30;100360.28;;;6.11;90.97
16595;BME280;8410;52.532;13.336;2023-02-02T02:25:34;100367.03;;;6.07;90.56
16595;BME280;8410;52.532;13.336;2023-02-02T02:28:41;100369.03;;;6.21;90.44
16595;BME280;8410;52.532;13.336;2023-02-02T02:34:36;100386.00;;;5.85;92.19
16595;BME280;8410;52.532;13.336;2023-02-02T02:37:10;100379.88;;;6.10;91.33
16595;BME280;8410;52.532;13.336;2023-02-02T02:39:48;100398.22;;;5.95;91.00
16595;BME280;8410;52.532;13.336;2023-02-02T02:42:21;100404.38;;;6.04;92.31
16595;BME280;8410;52.532;13.336;2023-02-02T02:44:50;100409.69;;;6.11;90.46
16595;BME280;8410;52.532;13.336;2023-02-02T02:47:19;100398.41;;;6.02;91.05
16595;BME280;8410;52.532;13.336;2023-02-02T02:49:48;100402.75;;;6.06;91.46
16595;BME280;8410;52.532;13.336;2023-02-02T02:52:16;100407.41;;;5.89;91.62
16595;BME280;8410;52.532;13.336;2023-02-02T02:54:46;100401.84;;;6.04;90.92
16595;BME280;8410;52.532;13.336;2023-02-02T02:57:38;100406.41;;;6.17;90.86
16595;BME280;8410;52.532;13.336;2023-02-02T03:00:17;100402.00;;;6.10;90.66
16595;BME280;8410;52.532;13.336;2023-02-02T03:02:56;100413.34;;;6.21;90.72
16595;BME280;8410;52.532;13.336;2023-02-02T03:05:31;100415.66;;;6.12;91.06
16595;BME280;8410;52.532;13.336;2023-02-02T03:08:05;100414.03;;;6.14;90.96
16595;BME280;8410;52.532;13.336;2023-02-02T03:10:35;100429.50;;;6.20;90.40
16595;BME280;8410;52.532;13.336;2023-02-02T03:13:06;100429.91;;;6.02;91.23
16595;BME280;8410;52.532;13.336;2023-02-02T03:15:35;100436.44;;;6.24;90.29
16595;BME280;8410;52.532;13.336;2023-02-02T03:18:03;100447.69;;;5.97;91.31
16595;BME280;8410;52.532;13.336;2023-02-02T03:20:32;100444.41;;;6.03;92.01
16595;BME280;8410;52.532;13.336;2023-02-02T03:22:59;100459.38;;;6.21;92.16
16595;BME280;8410;52.532;13.336;2023-02-02T03:25:27;100456.09;;;5.93;91.97
16595;BME280;8410;52.532;13.336;2023-02-02T03:27:54;100451.16;;;6.00;91.19
16595;BME280;8410;52.532;13.336;2023-02-02T03:30:22;100470.81;;;6.02;91.19
16595;BME280;8410;52.532;13.336;2023-02-02T03:32:50;100483.06;;;5.85;91.81
16595;BME280;8410;52.532;13.336;2023-02-02T03:35:18;100478.16;;;5.91;92.01
16595;BME280;8410;52.532;13.336;2023-02-02T03:37:48;100468.28;;;6.04;91.99
16595;BME280;8410;52.532;13.336;2023-02-02T03:40:16;100484.31;;;5.98;92.22
16595;BME280;8410;52.532;13.336;2023-02-02T03:42:43;100485.94;;;5.94;91.38
16595;BME280;8410;52.532;13.336;2023-02-02T03:45:11;100493.72;;;5.99;92.25
16595;BME280;8410;52.532;13.336;2023-02-02T03:47:38;100484.97;;;5.92;92.62
16595;BME280;8410;52.532;13.336;2023-02-02T03:50:07;100497.22;;;6.03;91.48
16595;BME280;8410;52.532;13.336;2023-02-02T03:52:35;100503.44;;;5.82;92.41
16595;BME280;8410;52.532;13.336;2023-02-02T03:55:05;100497.28;;;6.06;91.22
16595;BME280;8410;52.532;13.336;2023-02-02T03:57:33;100517.56;;;6.00;91.59
16595;BME280;8410;52.532;13.336;2023-02-02T04:00:00;100507.41;;;6.34;90.13
16595;BME280;8410;52.532;13.336;2023-02-02T04:02:28;100515.75;;;5.95;91.25
16595;BME280;8410;52.532;13.336;2023-02-02T04:04:55;100522.31;;;5.87;92.48
16595;BME280;8410;52.532;13.336;2023-02-02T04:07:23;100536.25;;;5.99;92.13
16595;BME280;8410;52.532;13.336;2023-02-02T04:09:50;100543.72;;;5.91;91.63
16595;BME280;8410;52.532;13.336;2023-02-02T04:12:19;100539.41;;;5.90;91.35
16595;BME280;8410;52.532;13.336;2023-02-02T04:14:47;100545.38;;;5.90;91.11
16595;BME280;8410;52.532;13.336;2023-02-02T04:17:14;100550.88;;;5.74;92.17
16595;BME280;8410;52.532;13.336;2023-02-02T04:19:42;100557.69;;;5.73;91.55
16595;BME280;8410;52.532;13.336;2023-02-02T04:22:09;100574.38;;;6.21;91.49
16595;BME280;8410;52.532;13.336;2023-02-02T04:24:36;100567.25;;;5.81;90.86
16595;BME280;8410;52.532;13.336;2023-02-02T04:27:04;100572.59;;;5.88;91.85
16595;BME280;8410;52.532;13.336;2023-02-02T04:29:33;100583.16;;;5.99;90.50
16595;BME280;8410;52.532;13.336;2023-02-02T04:32:00;100580.69;;;6.04;90.11
16595;BME280;8410;52.532;13.336;2023-02-02T04:34:28;100588.31;;;6.32;89.88
16595;BME280;8410;52.532;13.336;2023-02-02T04:36:55;100592.69;;;6.05;89.88
16595;BME280;8410;52.532;13.336;2023-02-02T04:39:22;100593.69;;;6.10;89.77
16595;BME280;8410;52.532;13.336;2023-02-02T04:41:50;100597.41;;;6.53;89.29
16595;BME280;8410;52.532;13.336;2023-02-02T04:44:18;100600.88;;;6.25;88.27
16595;BME280;8410;52.532;13.336;2023-02-02T04:46:46;100606.88;;;6.57;88.96
16595;BME280;8410;52.532;13.336;2023-02-02T04:49:14;100609.00;;;6.10;88.72
16595;BME280;8410;52.532;13.336;2023-02-02T04:51:41;100613.94;;;6.04;89.32
16595;BME280;8410;52.532;13.336;2023-02-02T04:54:09;100612.28;;;6.06;89.28
16595;BME280;8410;52.532;13.336;2023-02-02T04:56:36;100617.56;;;6.12;90.36
16595;BME280;8410;52.532;13.336;2023-02-02T04:59:04;100630.06;;;6.31;88.98
16595;BME280;8410;52.532;13.336;2023-02-02T05:01:31;100622.94;;;6.21;89.49
16595;BME280;8410;52.532;13.336;2023-02-02T05:04:00;100638.94;;;6.14;90.05
16595;BME280;8410;52.532;13.336;2023-02-02T05:06:28;100636.69;;;6.25;90.61
16595;BME280;8410;52.532;13.336;2023-02-02T05:08:55;100640.75;;;6.18;90.14
16595;BME280;8410;52.532;13.336;2023-02-02T05:11:23;100657.19;;;5.97;91.24
16595;BME280;8410;52.532;13.336;2023-02-02T05:13:52;100646.25;;;6.02;92.40
16595;BME280;8410;52.532;13.336;2023-02-02T05:16:20;100651.00;;;6.18;92.03
16595;BME280;8410;52.532;13.336;2023-02-02T05:18:49;100660.09;;;5.81;92.10
16595;BME280;8410;52.532;13.336;2023-02-02T05:21:18;100666.38;;;5.92;91.98
16595;BME280;8410;52.532;13.336;2023-02-02T05:23:46;100667.22;;;5.91;92.30
16595;BME280;8410;52.532;13.336;2023-02-02T05:26:16;100674.63;;;5.84;92.83
16595;BME280;8410;52.532;13.336;2023-02-02T05:28:44;100682.53;;;5.91;93.33
16595;BME280;8410;52.532;13.336;2023-02-02T05:31:11;100685.59;;;6.07;91.50
16595;BME280;8410;52.532;13.336;2023-02-02T05:33:39;100699.81;;;5.99;90.67
16595;BME280;8410;52.532;13.336;2023-02-02T05:36:06;100692.97;;;5.97;90.84
16595;BME280;8410;52.532;13.336;2023-02-02T05:38:35;100698.81;;;6.22;89.82
16595;BME280;8410;52.532;13.336;2023-02-02T05:41:03;100704.25;;;6.04;90.40
16595;BME280;8410;52.532;13.336;2023-02-02T05:43:32;100704.25;;;6.04;89.94
16595;BME280;8410;52.532;13.336;2023-02-02T05:46:00;100704.78;;;6.23;89.75
16595;BME280;8410;52.532;13.336;2023-02-02T05:48:27;100716.47;;;5.87;89.95
16595;BME280;8410;52.532;13.336;2023-02-02T05:50:58;100722.84;;;6.00;90.05
16595;BME280;8410;52.532;13.336;2023-02-02T05:53:28;100727.88;;;5.97;89.98
16595;BME280;8410;52.532;13.336;2023-02-02T05:55:57;100727.78;;;5.94;89.81
16595;BME280;8410;52.532;13.336;2023-02-02T05:58:25;100727.03;;;5.98;89.42
16595;BME280;8410;52.532;13.336;2023-02-02T06:00:53;100725.66;;;6.08;88.82
16595;BME280;8410;52.532;13.336;2023-02-02T06:03:22;100730.84;;;6.11;87.56
16595;BME280;8410;52.532;13.336;2023-02-02T06:05:50;100741.16;;;6.14;87.44
16595;BME280;8410;52.532;13.336;2023-02-02T06:08:17;100735.19;;;6.13;88.26
16595;BME280;8410;52.532;13.336;2023-02-02T06:10:45;100750.69;;;6.19;87.89
16595;BME280;8410;52.532;13.336;2023-02-02T06:13:14;100764.00;;;6.09;88.70
16595;BME280;8410;52.532;13.336;2023-02-02T06:15:41;100755.72;;;6.16;87.94
16595;BME280;8410;52.532;13.336;2023-02-02T06:18:09;100765.25;;;6.22;88.39
16595;BME280;8410;52.532;13.336;2023-02-02T06:20:36;100773.47;;;6.12;87.76
16595;BME280;8410;52.532;13.336;2023-02-02T06:23:04;100774.81;;;6.28;87.30
16595;BME280;8410;52.532;13.336;2023-02-02T06:25:32;100779.56;;;6.15;87.30
16595;BME280;8410;52.532;13.336;2023-02-02T06:28:00;100780.94;;;6.04;87.68
16595;BME280;8410;52.532;13.336;2023-02-02T06:30:29;100791.69;;;5.95;87.78
16595;BME280;8410;52.532;13.336;2023-02-02T06:32:58;100782.75;;;6.08;87.19
16595;BME280;8410;52.532;13.336;2023-02-02T06:35:25;100789.00;;;6.18;86.81
16595;BME280;8410;52.532;13.336;2023-02-02T06:37:53;100803.94;;;6.06;86.26
16595;BME280;8410;52.532;13.336;2023-02-02T06:40:21;100799.47;;;6.26;86.44
16595;BME280;8410;52.532;13.336;2023-02-02T06:42:54;100807.41;;;5.82;86.87
16595;BME280;8410;52.532;13.336;2023-02-02T06:45:22;100808.44;;;5.87;87.01
16595;BME280;8410;52.532;13.336;2023-02-02T06:47:51;100819.91;;;5.99;87.27
16595;BME280;8410;52.532;13.336;2023-02-02T06:50:19;100819.88;;;5.97;87.02
16595;BME280;8410;52.532;13.336;2023-02-02T06:52:47;100820.03;;;6.02;86.35
16595;BME280;8410;52.532;13.336;2023-02-02T06:55:14;100824.78;;;5.92;85.99
16595;BME280;8410;52.532;13.336;2023-02-02T06:57:42;100830.41;;;5.82;86.65
16595;BME280;8410;52.532;13.336;2023-02-02T07:00:11;100830.09;;;5.97;86.69
16595;BME280;8410;52.532;13.336;2023-02-02T07:02:39;100840.94;;;5.91;85.44
16595;BME280;8410;52.532;13.336;2023-02-02T07:05:08;100849.41;;;5.90;85.48
16595;BME280;8410;52.532;13.336;2023-02-02T07:07:35;100855.75;;;5.76;84.85
16595;BME280;8410;52.532;13.336;2023-02-02T07:10:03;100862.81;;;5.83;83.61
16595;BME280;8410;52.532;13.336;2023-02-02T07:12:31;100856.69;;;6.04;83.27
16595;BME280;8410;52.532;13.336;2023-02-02T07:14:58;100868.56;;;6.02;82.36
16595;BME280;8410;52.532;13.336;2023-02-02T07:17:26;100876.94;;;5.97;81.55
16595;BME280;8410;52.532;13.336;2023-02-02T07:19:54;100879.84;;;6.08;82.02
16595;BME280;8410;52.532;13.336;2023-02-02T07:22:22;100886.66;;;6.08;81.65
16595;BME280;8410;52.532;13.336;2023-02-02T07:24:50;100894.94;;;6.26;81.48
16595;BME280;8410;52.532;13.336;2023-02-02T07:27:17;100899.34;;;6.05;81.92
16595;BME280;8410;52.532;13.336;2023-02-02T07:29:45;100907.94;;;6.07;81.94
16595;BME280;8410;52.532;13.336;2023-02-02T07:32:12;100902.81;;;6.07;81.50
16595;BME280;8410;52.532;13.336;2023-02-02T07:34:40;100912.06;;;5.79;83.11
16595;BME280;8410;52.532;13.336;2023-02-02T07:37:09;100915.03;;;5.91;83.43
16595;BME280;8410;52.532;13.336;2023-02-02T07:39:38;100916.19;;;5.75;83.93
16595;BME280;8410;52.532;13.336;2023-02-02T07:42:05;100917.13;;;6.02;84.17
16595;BME280;8410;52.532;13.336;2023-02-02T07:44:33;100917.69;;;6.18;83.18
16595;BME280;8410;52.532;13.336;2023-02-02T07:47:01;100919.22;;;5.89;83.41
16595;BME280;8410;52.532;13.336;2023-02-02T07:49:28;100917.84;;;6.23;82.75
16595;BME280;8410;52.532;13.336;2023-02-02T07:51:56;100925.28;;;6.17;83.13
16595;BME280;8410;52.532;13.336;2023-02-02T07:54:23;100923.00;;;6.25;83.25
16595;BME280;8410;52.532;13.336;2023-02-02T07:56:52;100931.00;;;6.35;84.15
16595;BME280;8410;52.532;13.336;2023-02-02T07:59:19;100929.91;;;6.02;85.00
16595;BME280;8410;52.532;13.336;2023-02-02T08:01:47;100925.00;;;6.08;86.28
16595;BME280;8410;52.532;13.336;2023-02-02T08:04:14;100933.69;;;6.13;86.26
16595;BME280;8410;52.532;13.336;2023-02-02T08:06:42;100937.59;;;6.03;86.24
16595;BME280;8410;52.532;13.336;2023-02-02T08:09:10;100941.03;;;6.29;86.98
16595;BME280;8410;52.532;13.336;2023-02-02T08:11:37;100948.63;;;6.26;86.81
16595;BME280;8410;52.532;13.336;2023-02-02T08:14:06;100952.72;;;6.21;86.65
16595;BME280;8410;52.532;13.336;2023-02-02T08:16:34;100947.59;;;6.21;87.09
16595;BME280;8410;52.532;13.336;2023-02-02T08:19:01;100956.38;;;6.29;87.56
16595;BME280;8410;52.532;13.336;2023-02-02T08:21:31;100964.16;;;6.07;87.36
16595;BME280;8410;52.532;13.336;2023-02-02T08:23:59;100961.91;;;6.16;88.88
16595;BME280;8410;52.532;13.336;2023-02-02T08:26:28;100963.47;;;6.38;87.98
16595;BME280;8410;52.532;13.336;2023-02-02T08:28:58;100980.88;;;5.99;88.91
16595;BME280;8410;52.532;13.336;2023-02-02T08:31:29;100971.63;;;6.26;87.60
16595;BME280;8410;52.532;13.336;2023-02-02T08:33:57;100975.50;;;6.40;87.40
16595;BME280;8410;52.532;13.336;2023-02-02T08:36:26;100983.06;;;6.63;87.42
16595;BME280;8410;52.532;13.336;2023-02-02T08:38:58;100976.50;;;6.20;87.13
16595;BME280;8410;52.532;13.336;2023-02-02T08:41:28;100976.66;;;6.23;87.37
16595;BME280;8410;52.532;13.336;2023-02-02T08:43:55;100979.19;;;6.23;88.11
16595;BME280;8410;52.532;13.336;2023-02-02T08:46:23;100989.09;;;6.14;87.31
16595;BME280;8410;52.532;13.336;2023-02-02T08:48:52;100989.28;;;5.94;87.55
16595;BME280;8410;52.532;13.336;2023-02-02T08:51:20;100990.22;;;6.22;87.82
16595;BME280;8410;52.532;13.336;2023-02-02T08:53:47;100992.56;;;6.16;87.48
16595;BME280;8410;52.532;13.336;2023-02-02T08:56:17;100992.97;;;6.03;88.40
16595;BME280;8410;52.532;13.336;2023-02-02T08:58:45;100999.03;;;6.30;87.22
16595;BME280;8410;52.532;13.336;2023-02-02T09:01:16;100994.22;;;6.39;86.56
16595;BME280;8410;52.532;13.336;2023-02-02T09:03:44;100990.16;;;6.45;85.64
16595;BME280;8410;52.532;13.336;2023-02-02T09:06:14;100999.44;;;6.43;85.57
16595;BME280;8410;52.532;13.336;2023-02-02T09:08:43;100997.34;;;6.56;85.08
16595;BME280;8410;52.532;13.336;2023-02-02T09:11:13;100996.16;;;6.47;85.59
16595;BME280;8410;52.532;13.336;2023-02-02T09:13:41;101005.53;;;6.46;85.55
16595;BME280;8410;52.532;13.336;2023-02-02T09:16:12;101012.44;;;6.23;87.00
16595;BME280;8410;52.532;13.336;2023-02-02T09:18:40;101011.41;;;6.44;85.65
16595;BME280;8410;52.532;13.336;2023-02-02T09:21:11;101016.94;;;7.10;84.27
16595;BME280;8410;52.532;13.336;2023-02-02T09:23:41;101017.88;;;6.85;82.92
16595;BME280;8410;52.532;13.336;2023-02-02T09:26:10;101031.81;;;6.95;82.87
16595;BME280;8410;52.532;13.336;2023-02-02T09:28:38;101026.16;;;6.76;83.08
16595;BME280;8410;52.532;13.336;2023-02-02T09:31:06;101032.19;;;6.53;84.42
16595;BME280;8410;52.532;13.336;2023-02-02T09:33:34;101041.16;;;6.93;84.05
16595;BME280;8410;52.532;13.336;2023-02-02T09:36:03;101041.50;;;6.76;83.82
16595;BME280;8410;52.532;13.336;2023-02-02T09:38:31;101041.84;;;6.61;83.66
16595;BME280;8410;52.532;13.336;2023-02-02T09:41:00;101037.78;;;6.68;83.65
16595;BME280;8410;52.532;13.336;2023-02-02T09:43:46;101055.28;;;6.81;84.01
16595;BME280;8410;52.532;13.336;2023-02-02T09:46:31;101058.31;;;6.70;82.83
16595;BME280;8410;52.532;13.336;2023-02-02T09:49:09;101060.63;;;6.88;83.40
16595;BME280;8410;52.532;13.336;2023-02-02T09:51:40;101060.53;;;6.84;82.17
16595;BME280;8410;52.532;13.336;2023-02-02T09:54:15;101071.47;;;7.06;81.45
16595;BME280;8410;52.532;13.336;2023-02-02T09:56:47;101072.91;;;6.98;81.89
16595;BME280;8410;52.532;13.336;2023-02-02T09:59:19;101071.88;;;6.67;82.96
16595;BME280;8410;52.532;13.336;2023-02-02T10:01:53;101073.56;;;6.67;82.20
16595;BME280;8410;52.532;13.336;2023-02-02T10:04:25;101072.06;;;6.73;82.98
16595;BME280;8410;52.532;13.336;2023-02-02T10:06:55;101075.91;;;7.12;81.08
16595;BME280;8410;52.532;13.336;2023-02-02T10:09:30;101076.44;;;7.03;81.79
16595;BME280;8410;52.532;13.336;2023-02-02T10:12:05;101070.44;;;6.75;81.49
16595;BME280;8410;52.532;13.336;2023-02-02T10:14:40;101074.13;;;6.83;79.57
16595;BME280;8410;52.532;13.336;2023-02-02T10:17:24;101081.63;;;7.04;79.36
16595;BME280;8410;52.532;13.336;2023-02-02T10:19:59;101082.22;;;6.70;79.37
16595;BME280;8410;52.532;13.336;2023-02-02T10:22:30;101089.72;;;6.91;79.59
16595;BME280;8410;52.532;13.336;2023-02-02T10:24:59;101098.69;;;6.53;78.25
16595;BME280;8410;52.532;13.336;2023-02-02T10:27:34;101097.91;;;6.55;78.67
16595;BME280;8410;52.532;13.336;2023-02-02T10:30:12;101101.72;;;6.67;78.08
16595;BME280;8410;52.532;13.336;2023-02-02T10:32:46;101100.50;;;6.57;77.82
16595;BME280;8410;52.532;13.336;2023-02-02T10:35:27;101099.31;;;6.71;78.11
16595;BME280;8410;52.532;13.336;2023-02-02T10:37:59;101108.31;;;7.11;76.47
16595;BME280;8410;52.532;13.336;2023-02-02T10:40:47;101106.41;;;7.05;75.84
16595;BME280;8410;52.532;13.336;2023-02-02T10:43:34;101098.59;;;7.01;75.49
16595;BME280;8410;52.532;13.336;2023-02-02T10:46:15;101100.13;;;7.50;73.57
16595;BME280;8410;52.532;13.336;2023-02-02T10:48:48;101104.41;;;7.22;72.37
16595;BME280;8410;52.532;13.336;2023-02-02T10:51:20;101117.31;;;7.00;73.37
16595;BME280;8410;52.532;13.336;2023-02-02T10:53:51;101111.66;;;7.36;74.13
16595;BME280;8410;52.532;13.336;2023-02-02T10:56:21;101111.16;;;7.20;73.41
16595;BME280;8410;52.532;13.336;2023-02-02T10:58:58;101112.28;;;7.28;74.59
16595;BME280;8410;52.532;13.336;2023-02-02T11:01:29;101129.50;;;7.07;74.67
16595;BME280;8410;52.532;13.336;2023-02-02T11:03:56;101117.44;;;7.30;74.99
16595;BME280;8410;52.532;13.336;2023-02-02T11:06:42;101124.78;;;7.19;74.27
16595;BME280;8410;52.532;13.336;2023-02-02T11:09:20;101126.25;;;7.11;72.63
16595;BME280;8410;52.532;13.336;2023-02-02T11:11:51;101145.81;;;7.11;73.71
16595;BME280;8410;52.532;13.336;2023-02-02T11:14:29;101134.44;;;7.01;73.22
16595;BME280;8410;52.532;13.336;2023-02-02T11:17:02;101137.41;;;6.88;73.10
16595;BME280;8410;52.532;13.336;2023-02-02T11:19:31;101143.13;;;7.06;73.36
16595;BME280;8410;52.532;13.336;2023-02-02T11:22:01;101147.63;;;7.13;72.76
16595;BME280;8410;52.532;13.336;2023-02-02T11:24:30;101155.28;;;7.13;73.28
16595;BME280;8410;52.532;13.336;2023-02-02T11:27:03;101153.41;;;7.33;71.65
16595;BME280;8410;52.532;13.336;2023-02-02T11:29:41;101161.03;;;7.59;71.61
16595;BME280;8410;52.532;13.336;2023-02-02T11:32:24;101161.75;;;7.27;72.14
16595;BME280;8410;52.532;13.336;2023-02-02T11:35:15;101166.38;;;7.38;72.52
16595;BME280;8410;52.532;13.336;2023-02-02T11:37:57;101175.16;;;7.20;73.66
16595;BME280;8410;52.532;13.336;2023-02-02T11:40:30;101175.25;;;7.49;72.80
16595;BME280;8410;52.532;13.336;2023-02-02T11:42:59;101173.81;;;7.57;72.43
16595;BME280;8410;52.532;13.336;2023-02-02T11:45:33;101166.13;;;7.57;72.98
16595;BME280;8410;52.532;13.336;2023-02-02T11:48:05;101171.28;;;7.86;72.84
16595;BME280;8410;52.532;13.336;2023-02-02T11:50:34;101178.25;;;7.63;72.96
16595;BME280;8410;52.532;13.336;2023-02-02T11:53:01;101175.63;;;7.61;73.24
16595;BME280;8410;52.532;13.336;2023-02-02T11:55:30;101191.38;;;7.19;74.05
16595;BME280;8410;52.532;13.336;2023-02-02T11:58:17;101194.88;;;6.97;76.54
16595;BME280;8410;52.532;13.336;2023-02-02T12:00:48;101201.66;;;6.71;77.28
16595;BME280;8410;52.532;13.336;2023-02-02T12:03:37;101209.03;;;6.39;82.95
16595;BME280;8410;52.532;13.336;2023-02-02T12:06:17;101205.91;;;6.02;86.19
16595;BME280;8410;52.532;13.336;2023-02-02T12:08:45;101217.97;;;6.06;86.45
16595;BME280;8410;52.532;13.336;2023-02-02T12:11:23;101218.47;;;6.18;87.48
16595;BME280;8410;52.532;13.336;2023-02-02T12:14:04;101245.47;;;5.90;90.43
16595;BME280;8410;52.532;13.336;2023-02-02T12:16:48;101249.84;;;5.72;92.77
16595;BME280;8410;52.532;13.336;2023-02-02T12:22:22;101260.56;;;5.63;90.32
16595;BME280;8410;52.532;13.336;2023-02-02T12:24:56;101253.75;;;5.22;89.79
16595;BME280;8410;52.532;13.336;2023-02-02T12:27:36;101263.69;;;5.16;89.49
16595;BME280;8410;52.532;13.336;2023-02-02T12:30:16;101260.38;;;5.38;89.91
16595;BME280;8410;52.532;13.336;2023-02-02T12:33:15;101247.97;;;5.68;88.16
16595;BME280;8410;52.532;13.336;2023-02-02T12:36:05;101250.03;;;5.56;86.06
16595;BME280;8410;52.532;13.336;2023-02-02T12:38:49;101244.28;;;5.82;85.48
16595;BME280;8410;52.532;13.336;2023-02-02T12:41:32;101243.44;;;6.03;85.38
16595;BME280;8410;52.532;13.336;2023-02-02T12:44:10;101247.63;;;6.46;84.23
16595;BME280;8410;52.532;13.336;2023-02-02T12:46:51;101253.25;;;6.14;81.95
16595;BME280;8410;52.532;13.336;2023-02-02T12:49:39;101258.56;;;6.42;84.22
16595;BME280;8410;52.532;13.336;2023-02-02T12:52:22;101257.22;;;6.29;82.96
16595;BME280;8410;52.532;13.336;2023-02-02T12:55:03;101262.78;;;6.41;83.21
16595;BME280;8410;52.532;13.336;2023-02-02T12:57:42;101254.56;;;6.72;82.51
16595;BME280;8410;52.532;13.336;2023-02-02T13:00:43;101254.19;;;6.39;81.71
16595;BME280;8410;52.532;13.336;2023-02-02T13:03:26;101252.69;;;6.68;79.64
16595;BME280;8410;52.532;13.336;2023-02-02T13:06:08;101254.97;;;6.36;79.02
16595;BME280;8410;52.532;13.336;2023-02-02T13:08:44;101261.22;;;6.45;78.67
16595;BME280;8410;52.532;13.336;2023-02-02T13:11:18;101269.06;;;6.49;77.48
16595;BME280;8410;52.532;13.336;2023-02-02T13:14:01;101273.53;;;6.32;77.66
16595;BME280;8410;52.532;13.336;2023-02-02T13:16:34;101282.03;;;6.76;77.84
16595;BME280;8410;52.532;13.336;2023-02-02T13:19:05;101290.41;;;6.50;76.31
16595;BME280;8410;52.532;13.336;2023-02-02T13:21:35;101300.41;;;6.66;76.54
16595;BME280;8410;52.532;13.336;2023-02-02T13:24:06;101299.00;;;6.74;76.54
16595;BME280;8410;52.532;13.336;2023-02-02T13:26:40;101303.00;;;6.68;76.14
16595;BME280;8410;52.532;13.336;2023-02-02T13:29:18;101308.75;;;7.33;75.79